Flight Track Log - Related Links

Times and Time Zones

All times are in EDT time to prevent confusion due to time zone crossing. See the EJA131 flight status page for this flight to view local times or setup timezone preferences in your user account.

Time Position Orientation Groundspeed Altitude Reporting Facility
EDT Latitude Longitude Course Direction KTS MPH feet Rate Location/Type
Wed 02:39:37 PM 40.8500 -74.0833 229° Southwest 145 167 800  Level New York TRACON
Wed 02:40:37 PM 40.8167 -74.1333 239° Southwest 189 217 1,500 900 Climbing New York TRACON
Wed 02:41:37 PM 40.8000 -74.2000 252° West 200 230 2,600 1,450 Climbing New York TRACON
Wed 02:42:37 PM 40.7333 -74.2167 191° South 238 274 4,400 2,476 Climbing New York TRACON
Wed 02:43:43 PM 40.6667 -74.2500 201° Southwest 250 288 7,800 3,000 Climbing New York TRACON
Wed 02:44:37 PM 40.6167 -74.3000 217° Southwest 231 266 10,400 2,526 Climbing New York TRACON
Wed 02:45:37 PM 40.5500 -74.3167 191° South 267 307 12,600 1,650 Climbing New York TRACON
Wed 02:46:37 PM 40.4833 -74.2833 159° South 318 366 13,700 1,050 Climbing New York TRACON
Wed 02:47:37 PM 40.3833 -74.2833 180° South 354 407 14,700 1,023 Climbing New York TRACON
Wed 02:48:05 PM 40.3428 -74.2756 172° South 360 414 15,200 1,364 Climbing New York Center
Wed 02:49:05 PM 40.2514 -74.2708 178° South 365 420 16,700 1,068 Climbing New York Center
Wed 02:50:03 PM 40.1328 -74.2622 177° South 379 436 17,300 1,068 Climbing New York Center
Wed 02:51:03 PM 40.0319 -74.2925 193° South 386 444 18,800 1,438 Climbing New York Center
Wed 02:52:04 PM 39.9489 -74.3478 207° Southwest 370 426 20,200 1,249 Climbing New York Center
Wed 02:53:56 PM 39.7875 -74.4708 210° Southwest 367 422 22,400 1,151 Climbing Washington Center
Wed 02:54:56 PM 39.7133 -74.5664 225° Southwest 367 422 23,500 1,050 Climbing Washington Center
Wed 02:55:56 PM 39.6392 -74.6644 226° Southwest 374 430 24,500 1,000 Climbing Washington Center
Wed 02:56:56 PM 39.5647 -74.7650 226° Southwest 380 437 25,500 950 Climbing Washington Center
Wed 02:57:56 PM 39.4883 -74.8683 226° Southwest 386 444 26,400 900 Climbing Washington Center
Wed 02:58:56 PM 39.4097 -74.9683 225° Southwest 392 451 27,300 950 Climbing Washington Center
Wed 02:59:56 PM 39.3331 -75.0711 226° Southwest 398 458 28,300 900 Climbing Washington Center
Wed 03:00:56 PM 39.2333 -75.1442 210° Southwest 404 465 29,100 800 Climbing Washington Center
Wed 03:01:56 PM 39.1211 -75.1875 197° South 404 465 29,900 850 Climbing Washington Center
Wed 03:02:56 PM 39.0108 -75.2364 199° South 415 478 30,800 850 Climbing Washington Center
Wed 03:03:56 PM 38.9003 -75.2822 198° South 420 483 31,600 800 Climbing Washington Center
Wed 03:04:56 PM 38.7900 -75.3306 199° South 420 483 32,400 850 Climbing Washington Center
Wed 03:05:56 PM 38.6775 -75.3736 197° South 425 489 33,300 800 Climbing Washington Center
Wed 03:06:56 PM 38.5669 -75.4217 199° South 425 489 34,000 350 Climbing Washington Center
Wed 03:07:56 PM 38.4503 -75.4672 197° South 425 489 34,000  Level Washington Center
Wed 03:08:56 PM 38.3378 -75.5228 201° Southwest 430 495 34,000  Level Washington Center
Wed 03:09:56 PM 38.2294 -75.6156 214° Southwest 425 489 34,000  Level Washington Center
Wed 03:10:56 PM 38.1356 -75.7053 217° Southwest 430 495 34,000  Level Washington Center
Wed 03:11:56 PM 38.0417 -75.7922 216° Southwest 430 495 34,000  Level Washington Center
Wed 03:12:56 PM 37.9581 -75.8708 217° Southwest 430 495 34,000  Level Washington Center
Wed 03:13:56 PM 37.8639 -75.9600 217° Southwest 430 495 34,000  Level Washington Center
Wed 03:14:56 PM 37.7719 -76.0517 218° Southwest 430 495 34,000  Level Washington Center
Wed 03:15:56 PM 37.6797 -76.1375 216° Southwest 430 495 34,000  Level Washington Center
Wed 03:16:56 PM 37.5833 -76.2181 214° Southwest 425 489 34,000  Level Washington Center
Wed 03:17:56 PM 37.4911 -76.3039 216° Southwest 425 489 34,000  Level Washington Center
Wed 03:18:56 PM 37.3967 -76.3917 216° Southwest 425 489 34,000  Level Washington Center
Wed 03:19:56 PM 37.3044 -76.4769 216° Southwest 425 489 34,000  Level Washington Center
Wed 03:20:56 PM 37.2100 -76.5594 215° Southwest 425 489 34,000  Level Washington Center
Wed 03:21:56 PM 37.1153 -76.6467 216° Southwest 425 489 34,000  Level Washington Center
Wed 03:22:56 PM 37.0206 -76.7339 216° Southwest 425 489 34,000  Level Washington Center
Wed 03:23:56 PM 36.9175 -76.8258 216° Southwest 430 495 34,000  Level Washington Center
Wed 03:24:56 PM 36.8289 -76.9050 216° Southwest 437 503 34,000  Level Washington Center
Wed 03:25:56 PM 36.7364 -76.9889 216° Southwest 432 497 34,000  Level Washington Center
Wed 03:26:56 PM 36.6372 -77.0750 215° Southwest 432 497 34,000  Level Washington Center
Wed 03:27:56 PM 36.5442 -77.1614 217° Southwest 432 497 34,000  Level Washington Center
Wed 03:28:56 PM 36.4492 -77.2444 215° Southwest 432 497 34,000  Level Washington Center
Wed 03:29:56 PM 36.3542 -77.3303 216° Southwest 432 497 34,000  Level Washington Center
Wed 03:30:56 PM 36.2592 -77.4131 215° Southwest 432 497 34,000  Level Washington Center
Wed 03:31:56 PM 36.1575 -77.5061 216° Southwest 419 482 34,000  Level Washington Center
Wed 03:32:56 PM 36.0622 -77.5886 215° Southwest 419 482 34,000  Level Washington Center
Wed 03:33:56 PM 35.9647 -77.6708 214° Southwest 419 482 34,000  Level Washington Center
Wed 03:34:56 PM 35.8717 -77.7528 216° Southwest 419 482 34,000 -150 Level Washington Center
Wed 03:35:56 PM 35.7761 -77.8347 215° Southwest 424 488 33,700 -400 Descending Washington Center
Wed 03:36:56 PM 35.6850 -77.9114 214° Southwest 424 488 33,200 -450 Descending Washington Center
Wed 03:37:56 PM 35.5936 -77.9906 215° Southwest 419 482 32,800 -450 Descending Washington Center
Wed 03:38:56 PM 35.5003 -78.0694 215° Southwest 413 475 32,300 -450 Descending Washington Center
Wed 03:39:56 PM 35.4069 -78.1481 214° Southwest 413 475 31,900 -400 Descending Washington Center
Wed 03:40:56 PM 35.3283 -78.2092 212° Southwest 413 475 31,500 -450 Descending Washington Center
Wed 03:41:56 PM 35.2200 -78.2922 212° Southwest 418 481 31,000 -500 Descending Washington Center
Wed 03:42:56 PM 35.1203 -78.3700 213° Southwest 428 493 30,500 -500 Descending Washington Center
Wed 03:43:56 PM 35.0225 -78.4453 212° Southwest 428 493 30,000 -479 Descending Washington Center
Wed 03:46:04 PM 34.8025 -78.6122 212° Southwest 423 487 29,000 -479 Descending Jacksonville Center
Wed 03:47:04 PM 34.7031 -78.6881 212° Southwest 423 487 28,500 -500 Descending Jacksonville Center
Wed 03:48:04 PM 34.6053 -78.7633 212° Southwest 423 487 28,000 -250 Descending Jacksonville Center
Wed 03:49:04 PM 34.5058 -78.8411 213° Southwest 423 487 28,000  Level Jacksonville Center
Wed 03:50:04 PM 34.4183 -78.9133 214° Southwest 423 487 28,000 -250 Level Jacksonville Center
Wed 03:51:04 PM 34.3186 -78.9908 213° Southwest 423 487 27,500 -750 Descending Jacksonville Center
Wed 03:52:04 PM 34.2078 -79.0511 204° Southwest 429 494 26,500 -1,000 Descending Jacksonville Center
Wed 03:53:04 PM 34.0944 -79.1011 200° South 429 494 25,500 -1,100 Descending Jacksonville Center
Wed 03:54:04 PM 33.9833 -79.1508 200° South 434 499 24,300 -1,350 Descending Jacksonville Center
Wed 03:55:04 PM 33.8700 -79.2008 200° South 434 499 22,800 -1,800 Descending Jacksonville Center
Wed 03:56:04 PM 33.7550 -79.2656 205° Southwest 427 491 20,700 -2,000 Descending Jacksonville Center
Wed 03:57:04 PM 33.6753 -79.3239 211° Southwest 396 456 18,800 -1,900 Descending Jacksonville Center
Wed 03:58:04 PM 33.5856 -79.3922 212° Southwest 385 443 16,900 -2,050 Descending Jacksonville Center
Wed 03:59:04 PM 33.4975 -79.4581 212° Southwest 380 437 14,700 -2,150 Descending Jacksonville Center
Wed 04:00:04 PM 33.4136 -79.5208 212° Southwest 374 430 12,600 -1,850 Descending Jacksonville Center
Wed 04:01:04 PM 33.3339 -79.5811 212° Southwest 362 417 11,000 -1,400 Descending Jacksonville Center
Wed 04:02:04 PM 33.2581 -79.6361 211° Southwest 326 375 9,800 -1,350 Descending Jacksonville Center
Wed 04:03:04 PM 33.2094 -79.6900 223° Southwest 282 325 8,300 -1,350 Descending Jacksonville Center
Wed 04:04:04 PM 33.2072 -79.7669 268° West 225 259 7,100 -750 Descending Jacksonville Center
Wed 04:05:04 PM 33.2025 -79.8342 265° West 219 252 6,800 -1,050 Descending Jacksonville Center
Wed 04:06:04 PM 33.1703 -79.8850 233° Southwest 188 216 5,000 -1,450 Descending Jacksonville Center
Wed 04:07:04 PM 33.1125 -79.9142 203° Southwest 198 228 3,900 -1,050 Descending Jacksonville Center
Wed 04:08:04 PM 33.0611 -79.9481 209° Southwest 210 242 2,900 -950 Descending Jacksonville Center
Wed 04:09:04 PM 33.0097 -79.9794 207° Southwest 210 242 2,000 -900 Descending Jacksonville Center
Wed 04:11:00 PM 32.8986 -80.0405 207° Southwest  Level Estimated
Wed 04:18:00 PM 32.8986 -80.0405 207° Southwest  Level Estimated
Wed 04:19:00 PM 32.8986 -80.0405 207° Southwest  Level Estimated
Wed 04:20:00 PM 32.8986 -80.0405 207° Southwest  Level Estimated

Login

Don't have an account? Register now (free) for customized features, flight alerts, and more!